AAY2319 KMFE-KLAS
Flight info
| Callsign | AAY2319 |
|---|---|
| Flight time | N/A |
| Altitude | 36000 |
| Route | ELIZA V17 LRD FUSCO Q20 CNX ZUN INW HAHAA RKSTR4 |
| Aircraft | A319/M-SDE3FGHIRWY/LB1 |
Departure
| Time | 2026-05-07 02:51 |
|---|---|
| Airport | McAllen Miller International Airport (KMFE) |
Arrival
| Time | N/A |
|---|---|
| Airport | Harry Reid International Airport (KLAS) |
| Time | Latitude | Longitude | Altitude | Speed | Heading |
|---|---|---|---|---|---|
| 2026-05-07 02:12 | 26.17997 | -98.23918 | 112 ft | 0 kts | 290° |
| 2026-05-07 02:41 | 26.17996 | -98.23913 | 111 ft | 2 kts | 292° |
| 2026-05-07 02:42 | 26.17987 | -98.23894 | 109 ft | 3 kts | 311° |
| 2026-05-07 02:42 | 26.17972 | -98.23881 | 109 ft | 3 kts | 347° |
| 2026-05-07 02:42 | 26.17953 | -98.23880 | 109 ft | 3 kts | 21° |
| 2026-05-07 02:42 | 26.17935 | -98.23890 | 112 ft | 3 kts | 38° |
| 2026-05-07 02:43 | 26.17920 | -98.23905 | 108 ft | 3 kts | 47° |
| 2026-05-07 02:43 | 26.17907 | -98.23922 | 108 ft | 3 kts | 66° |
| 2026-05-07 02:43 | 26.17902 | -98.23938 | 110 ft | 3 kts | 143° |
| 2026-05-07 02:43 | 26.17891 | -98.23948 | 111 ft | 2 kts | 220° |
| 2026-05-07 02:44 | 26.17888 | -98.23952 | 111 ft | 0 kts | 230° |
| 2026-05-07 02:47 | 26.17887 | -98.23954 | 110 ft | 1 kts | 231° |
| 2026-05-07 02:47 | 26.17881 | -98.23963 | 110 ft | 3 kts | 234° |
| 2026-05-07 02:47 | 26.17861 | -98.23993 | 112 ft | 6 kts | 228° |
| 2026-05-07 02:47 | 26.17838 | -98.24040 | 113 ft | 8 kts | 262° |
| 2026-05-07 02:48 | 26.17876 | -98.24096 | 113 ft | 10 kts | 321° |
| 2026-05-07 02:48 | 26.17928 | -98.24146 | 114 ft | 9 kts | 319° |
| 2026-05-07 02:48 | 26.17976 | -98.24187 | 116 ft | 9 kts | 322° |
| 2026-05-07 02:48 | 26.18032 | -98.24237 | 116 ft | 12 kts | 320° |
| 2026-05-07 02:49 | 26.18101 | -98.24302 | 116 ft | 14 kts | 320° |
| 2026-05-07 02:49 | 26.18178 | -98.24371 | 116 ft | 13 kts | 321° |
| 2026-05-07 02:49 | 26.18247 | -98.24434 | 120 ft | 13 kts | 321° |
| 2026-05-07 02:49 | 26.18317 | -98.24498 | 119 ft | 13 kts | 316° |
| 2026-05-07 02:50 | 26.18310 | -98.24585 | 117 ft | 12 kts | 229° |
| 2026-05-07 02:50 | 26.18248 | -98.24592 | 120 ft | 10 kts | 141° |
| 2026-05-07 02:50 | 26.18174 | -98.24523 | 122 ft | 31 kts | 140° |
| 2026-05-07 02:50 | 26.17824 | -98.24203 | 115 ft | 97 kts | 140° |
| 2026-05-07 02:51 | 26.17168 | -98.23602 | 149 ft | 143 kts | 140° |
| 2026-05-07 02:51 | 26.16367 | -98.22890 | 632 ft | 149 kts | 139° |
| 2026-05-07 02:51 | 26.15568 | -98.22172 | 1267 ft | 147 kts | 139° |
| 2026-05-07 02:51 | 26.14855 | -98.21386 | 1760 ft | 147 kts | 115° |
| 2026-05-07 02:52 | 26.14797 | -98.20192 | 1920 ft | 171 kts | 71° |
| 2026-05-07 02:52 | 26.15623 | -98.19110 | 2100 ft | 203 kts | 32° |
| 2026-05-07 02:52 | 26.17087 | -98.18751 | 2380 ft | 231 kts | 355° |
| 2026-05-07 02:52 | 26.18578 | -98.19410 | 3007 ft | 245 kts | 328° |
| 2026-05-07 02:53 | 26.19971 | -98.20661 | 3362 ft | 268 kts | 321° |
| 2026-05-07 02:53 | 26.21357 | -98.22093 | 4072 ft | 274 kts | 318° |
| 2026-05-07 02:53 | 26.22698 | -98.23568 | 4863 ft | 275 kts | 317° |
| 2026-05-07 02:53 | 26.24047 | -98.25086 | 5661 ft | 276 kts | 317° |
| 2026-05-07 02:54 | 26.25395 | -98.26611 | 6441 ft | 277 kts | 316° |
| 2026-05-07 02:54 | 26.26750 | -98.28139 | 7149 ft | 278 kts | 315° |
| 2026-05-07 02:54 | 26.28127 | -98.29686 | 7771 ft | 284 kts | 315° |
| 2026-05-07 02:54 | 26.29529 | -98.31257 | 8416 ft | 288 kts | 314° |
| 2026-05-07 02:55 | 26.30958 | -98.32850 | 9065 ft | 293 kts | 313° |
| 2026-05-07 02:55 | 26.32409 | -98.34464 | 9721 ft | 297 kts | 313° |
| 2026-05-07 02:55 | 26.33889 | -98.36111 | 10181 ft | 308 kts | 313° |
| 2026-05-07 02:55 | 26.35460 | -98.37864 | 10320 ft | 330 kts | 313° |
| 2026-05-07 02:56 | 26.37112 | -98.39707 | 10732 ft | 340 kts | 313° |
| 2026-05-07 02:56 | 26.38796 | -98.41578 | 11306 ft | 344 kts | 313° |
| 2026-05-07 02:56 | 26.40499 | -98.43471 | 11923 ft | 347 kts | 312° |
| 2026-05-07 02:56 | 26.42216 | -98.45382 | 12539 ft | 350 kts | 312° |
| 2026-05-07 02:57 | 26.43945 | -98.47310 | 13152 ft | 353 kts | 312° |
| 2026-05-07 02:57 | 26.45688 | -98.49250 | 13746 ft | 356 kts | 313° |
| 2026-05-07 02:57 | 26.47608 | -98.51034 | 14297 ft | 360 kts | 317° |
| 2026-05-07 02:57 | 26.49570 | -98.52788 | 14851 ft | 363 kts | 317° |
| 2026-05-07 02:58 | 26.51549 | -98.54552 | 15407 ft | 365 kts | 317° |
| 2026-05-07 02:58 | 26.53542 | -98.56330 | 15944 ft | 368 kts | 317° |
| 2026-05-07 02:58 | 26.55551 | -98.58126 | 16492 ft | 371 kts | 316° |
| 2026-05-07 02:58 | 26.57572 | -98.59935 | 17043 ft | 374 kts | 316° |
| 2026-05-07 02:59 | 26.59611 | -98.61768 | 17583 ft | 377 kts | 316° |
| 2026-05-07 02:59 | 26.61665 | -98.63615 | 18117 ft | 381 kts | 316° |
| 2026-05-07 02:59 | 26.63739 | -98.65479 | 18594 ft | 384 kts | 315° |
| 2026-05-07 02:59 | 26.65826 | -98.67355 | 19094 ft | 386 kts | 315° |
| 2026-05-07 03:00 | 26.67926 | -98.69244 | 19596 ft | 388 kts | 315° |
| 2026-05-07 03:00 | 26.70011 | -98.71121 | 20101 ft | 391 kts | 315° |
| 2026-05-07 03:00 | 26.72162 | -98.73056 | 20612 ft | 393 kts | 315° |
| 2026-05-07 03:00 | 26.74273 | -98.74952 | 21108 ft | 396 kts | 315° |
| 2026-05-07 03:01 | 26.76453 | -98.76910 | 21618 ft | 398 kts | 315° |
| 2026-05-07 03:01 | 26.78616 | -98.78857 | 22115 ft | 401 kts | 315° |
| 2026-05-07 03:01 | 26.80766 | -98.80797 | 22610 ft | 403 kts | 315° |
| 2026-05-07 03:01 | 26.82952 | -98.82772 | 23095 ft | 406 kts | 315° |
| 2026-05-07 03:02 | 26.85154 | -98.84763 | 23554 ft | 408 kts | 314° |
| 2026-05-07 03:02 | 26.87369 | -98.86764 | 23958 ft | 410 kts | 314° |
| 2026-05-07 03:02 | 26.89597 | -98.88770 | 24371 ft | 412 kts | 314° |
| 2026-05-07 03:02 | 26.91836 | -98.90783 | 24781 ft | 413 kts | 314° |
| 2026-05-07 03:03 | 26.94076 | -98.92801 | 25183 ft | 414 kts | 314° |
| 2026-05-07 03:03 | 26.96324 | -98.94835 | 25576 ft | 416 kts | 314° |
| 2026-05-07 03:03 | 26.98580 | -98.96877 | 25971 ft | 417 kts | 314° |
| 2026-05-07 03:03 | 27.00843 | -98.98927 | 26340 ft | 419 kts | 314° |
| 2026-05-07 03:04 | 27.03114 | -99.00985 | 26702 ft | 421 kts | 314° |
| 2026-05-07 03:04 | 27.05393 | -99.03052 | 27060 ft | 422 kts | 313° |
| 2026-05-07 03:04 | 27.07686 | -99.05132 | 27416 ft | 424 kts | 313° |
| 2026-05-07 03:04 | 27.09983 | -99.07216 | 27766 ft | 426 kts | 313° |
| 2026-05-07 03:05 | 27.12290 | -99.09310 | 28117 ft | 427 kts | 313° |
| 2026-05-07 03:05 | 27.14605 | -99.11413 | 28466 ft | 429 kts | 313° |
| 2026-05-07 03:05 | 27.16928 | -99.13529 | 28800 ft | 431 kts | 313° |
| 2026-05-07 03:05 | 27.19261 | -99.15656 | 29130 ft | 432 kts | 313° |
| 2026-05-07 03:06 | 27.21603 | -99.17788 | 29452 ft | 434 kts | 313° |
| 2026-05-07 03:06 | 27.23955 | -99.19928 | 29769 ft | 436 kts | 313° |
| 2026-05-07 03:06 | 27.26320 | -99.22083 | 30057 ft | 437 kts | 313° |
| 2026-05-07 03:06 | 27.28691 | -99.24242 | 30310 ft | 439 kts | 313° |
| 2026-05-07 03:07 | 27.31069 | -99.26406 | 30575 ft | 440 kts | 313° |
| 2026-05-07 03:07 | 27.33456 | -99.28580 | 30832 ft | 442 kts | 313° |
| 2026-05-07 03:07 | 27.35850 | -99.30761 | 31095 ft | 443 kts | 313° |
| 2026-05-07 03:07 | 27.38246 | -99.32950 | 31353 ft | 445 kts | 313° |
| 2026-05-07 03:08 | 27.40616 | -99.35115 | 31696 ft | 443 kts | 313° |
| 2026-05-07 03:08 | 27.43005 | -99.37296 | 32057 ft | 442 kts | 313° |
| 2026-05-07 03:08 | 27.45393 | -99.39480 | 32411 ft | 441 kts | 313° |
| 2026-05-07 03:08 | 27.47874 | -99.41543 | 32749 ft | 448 kts | 320° |
| 2026-05-07 03:09 | 27.50670 | -99.43178 | 33084 ft | 457 kts | 328° |
| 2026-05-07 03:09 | 27.53577 | -99.44616 | 33426 ft | 456 kts | 328° |
| 2026-05-07 03:09 | 27.56485 | -99.46052 | 33772 ft | 455 kts | 328° |
| 2026-05-07 03:09 | 27.59383 | -99.47489 | 34080 ft | 455 kts | 328° |
| 2026-05-07 03:10 | 27.62275 | -99.48929 | 34370 ft | 454 kts | 328° |
| 2026-05-07 03:10 | 27.65162 | -99.50365 | 34658 ft | 453 kts | 328° |
| 2026-05-07 03:10 | 27.68045 | -99.51799 | 34932 ft | 452 kts | 327° |
| 2026-05-07 03:10 | 27.70919 | -99.53233 | 35198 ft | 451 kts | 327° |
| 2026-05-07 03:11 | 27.73792 | -99.54669 | 35469 ft | 450 kts | 327° |
| 2026-05-07 03:11 | 27.76652 | -99.56099 | 35741 ft | 449 kts | 327° |
| 2026-05-07 03:11 | 27.79512 | -99.57534 | 35856 ft | 448 kts | 327° |
| 2026-05-07 03:11 | 27.82345 | -99.58952 | 35878 ft | 444 kts | 327° |
| 2026-05-07 03:12 | 27.87967 | -99.61763 | 35870 ft | 441 kts | 327° |
| 2026-05-07 03:12 | 27.93566 | -99.64575 | 35875 ft | 440 kts | 327° |
| 2026-05-07 03:13 | 27.99158 | -99.67393 | 35877 ft | 440 kts | 327° |
| 2026-05-07 03:13 | 28.04750 | -99.70208 | 35877 ft | 439 kts | 327° |
| 2026-05-07 03:14 | 28.09982 | -99.72833 | 35885 ft | 439 kts | 327° |
| 2026-05-07 03:15 | 28.18371 | -99.77051 | 35899 ft | 439 kts | 326° |
| 2026-05-07 03:15 | 28.23954 | -99.79870 | 35918 ft | 439 kts | 326° |
| 2026-05-07 03:16 | 28.29545 | -99.82693 | 35932 ft | 439 kts | 326° |
| 2026-05-07 03:16 | 28.35093 | -99.85499 | 35947 ft | 439 kts | 326° |
| 2026-05-07 03:17 | 28.40677 | -99.88330 | 35956 ft | 440 kts | 326° |
| 2026-05-07 03:17 | 28.46266 | -99.91164 | 35967 ft | 440 kts | 326° |
| 2026-05-07 03:18 | 28.51856 | -99.94002 | 35968 ft | 440 kts | 326° |
| 2026-05-07 03:18 | 28.57445 | -99.96836 | 35961 ft | 439 kts | 326° |
| 2026-05-07 03:19 | 28.63024 | -99.99667 | 35945 ft | 439 kts | 325° |
| 2026-05-07 03:19 | 28.68595 | -100.02505 | 35931 ft | 439 kts | 325° |
| 2026-05-07 03:20 | 28.74167 | -100.05349 | 35916 ft | 438 kts | 325° |
| 2026-05-07 03:20 | 28.79734 | -100.08183 | 35896 ft | 438 kts | 325° |
| 2026-05-07 03:21 | 28.85293 | -100.11021 | 35895 ft | 438 kts | 325° |
| 2026-05-07 03:21 | 28.90850 | -100.13868 | 35883 ft | 438 kts | 325° |
| 2026-05-07 03:22 | 28.96409 | -100.16717 | 35899 ft | 438 kts | 325° |
| 2026-05-07 03:22 | 29.01969 | -100.19568 | 35895 ft | 438 kts | 324° |
| 2026-05-07 03:23 | 29.07533 | -100.22422 | 35901 ft | 438 kts | 324° |
| 2026-05-07 03:23 | 29.13095 | -100.25280 | 35908 ft | 438 kts | 324° |
| 2026-05-07 03:24 | 29.18652 | -100.28143 | 35910 ft | 438 kts | 324° |
| 2026-05-07 03:24 | 29.24211 | -100.31009 | 35915 ft | 438 kts | 324° |
| 2026-05-07 03:25 | 29.29762 | -100.33865 | 35913 ft | 437 kts | 324° |
| 2026-05-07 03:25 | 29.35308 | -100.36726 | 35910 ft | 437 kts | 324° |
| 2026-05-07 03:26 | 29.40849 | -100.39588 | 35914 ft | 437 kts | 324° |
| 2026-05-07 03:26 | 29.46385 | -100.42456 | 35918 ft | 436 kts | 324° |